Time;durP1;ratioP1;P1;durP2;ratioP2;P2;SDS_P1;SDS_P2;PMS_P1;PMS_P2;Temp;Humidity;BMP_temperature;BMP_pressure;BME280_temperature;BME280_humidity;BME280_pressure;Samples;Min_cycle;Max_cycle;Signal;HPM_P1;HPM_P2
2023/07/11 00:01:46;;;;;;;11.18;4.05;;;;;;;;;;4880915;29;20033;-81
2023/07/11 00:04:11;;;;;;;11.25;3.67;;;;;;;;;;4882048;29;20409;-80
2023/07/11 00:06:37;;;;;;;6.65;3.35;;;;;;;;;;4882911;29;20073;-80
2023/07/11 00:09:03;;;;;;;10.55;3.95;;;;;;;;;;4867236;29;20036;-80
2023/07/11 00:11:29;;;;;;;7.32;3.50;;;;;;;;;;4882009;29;20045;-80
2023/07/11 00:13:55;;;;;;;7.65;3.47;;;;;;;;;;4899362;29;20037;-80
2023/07/11 00:16:21;;;;;;;8.25;3.10;;;;;;;;;;4882829;29;20035;-81
2023/07/11 00:18:46;;;;;;;7.25;3.70;;;;;;;;;;4882706;29;20044;-79
2023/07/11 00:21:12;;;;;;;12.30;3.13;;;;;;;;;;4891922;29;20429;-81
2023/07/11 00:23:38;;;;;;;7.60;3.40;;;;;;;;;;4909734;23;20395;-82
2023/07/11 00:26:03;;;;;;;11.25;3.45;;;;;;;;;;4919734;29;20070;-81
2023/07/11 00:28:29;;;;;;;8.00;2.78;;;;;;;;;;4935592;29;20456;-81
2023/07/11 00:30:54;;;;;;;6.35;2.80;;;;;;;;;;4936109;29;20091;-80
2023/07/11 00:33:20;;;;;;;6.55;3.05;;;;;;;;;;4936530;29;20062;-83
2023/07/11 00:35:47;;;;;;;6.88;3.42;;;;;;;;;;4936566;29;20492;-83
2023/07/11 00:38:15;;;;;;;4.85;2.72;;;;;;;;;;4936240;29;20046;-82
2023/07/11 00:40:41;;;;;;;10.07;3.05;;;;;;;;;;4919408;29;20119;-83
2023/07/11 00:43:09;;;;;;;6.20;3.15;;;;;;;;;;4908242;29;20143;-82
2023/07/11 00:45:53;;;;;;;5.63;2.55;;;;;;;;;;4955268;29;20032;-83
2023/07/11 00:48:20;;;;;;;7.55;3.50;;;;;;;;;;4955483;28;20077;-83
2023/07/11 00:50:46;;;;;;;8.13;3.42;;;;;;;;;;4955008;29;20035;-82
2023/07/11 00:53:12;;;;;;;8.70;3.10;;;;;;;;;;4954530;28;20030;-83
2023/07/11 00:55:40;;;;;;;7.60;3.33;;;;;;;;;;4937957;29;20102;-82
2023/07/11 00:58:05;;;;;;;5.93;2.78;;;;;;;;;;4955259;29;20034;-83
2023/07/11 01:00:31;;;;;;;6.57;3.20;;;;;;;;;;4944584;28;20027;-81
2023/07/11 01:02:57;;;;;;;6.07;3.17;;;;;;;;;;4935842;29;20054;-82
2023/07/11 01:05:22;;;;;;;6.32;2.90;;;;;;;;;;4938286;29;20027;-81
2023/07/11 01:07:48;;;;;;;6.72;3.08;;;;;;;;;;4922826;29;20027;-83
2023/07/11 01:10:13;;;;;;;7.10;3.22;;;;;;;;;;4955230;29;20031;-82
2023/07/11 01:12:48;;;;;;;5.78;2.63;;;;;;;;;;4955372;29;20090;-82
2023/07/11 01:15:14;;;;;;;5.63;3.00;;;;;;;;;;4938533;29;20023;-82
2023/07/11 01:17:40;;;;;;;6.78;3.25;;;;;;;;;;4934099;29;20040;-82
2023/07/11 01:20:08;;;;;;;5.82;2.80;;;;;;;;;;4955061;29;20023;-81
2023/07/11 01:22:37;;;;;;;10.90;3.75;;;;;;;;;;4956246;28;20570;-81
2023/07/11 01:25:10;;;;;;;9.10;3.08;;;;;;;;;;4939041;29;20475;-82
2023/07/11 01:27:37;;;;;;;5.35;2.97;;;;;;;;;;4956522;29;20031;-82
2023/07/11 01:30:03;;;;;;;7.32;2.90;;;;;;;;;;4939649;29;20034;-82
2023/07/11 01:32:29;;;;;;;9.02;3.17;;;;;;;;;;4945594;28;20042;-81
2023/07/11 01:34:54;;;;;;;5.93;2.97;;;;;;;;;;4946880;29;20031;-83
2023/07/11 01:37:20;;;;;;;9.63;3.00;;;;;;;;;;4941136;29;20035;-82
2023/07/11 01:39:46;;;;;;;7.10;2.85;;;;;;;;;;4971066;29;20128;-82
2023/07/11 01:42:11;;;;;;;7.15;2.90;;;;;;;;;;4955359;29;20035;-82
2023/07/11 01:44:37;;;;;;;5.50;3.17;;;;;;;;;;4918901;29;20546;-83
2023/07/11 01:47:02;;;;;;;7.88;3.40;;;;;;;;;;4939654;29;20031;-82
2023/07/11 01:49:28;;;;;;;6.10;3.17;;;;;;;;;;4904758;29;20035;-83
2023/07/11 01:52:23;;;;;;;5.95;3.17;;;;;;;;;;4940108;29;20031;-83
2023/07/11 01:54:50;;;;;;;5.57;3.13;;;;;;;;;;4937581;29;20047;-81
2023/07/11 01:57:16;;;;;;;7.20;3.08;;;;;;;;;;4955195;29;20027;-82
2023/07/11 01:59:41;;;;;;;7.47;3.20;;;;;;;;;;4955001;29;20023;-83
2023/07/11 02:02:08;;;;;;;6.72;3.03;;;;;;;;;;4937192;29;20038;-81
2023/07/11 02:04:37;;;;;;;4.95;3.30;;;;;;;;;;4953525;28;20403;-83
2023/07/11 02:07:03;;;;;;;5.25;2.80;;;;;;;;;;4921320;29;20031;-82
2023/07/11 02:09:28;;;;;;;4.90;3.08;;;;;;;;;;4956260;29;20027;-82
2023/07/11 02:11:54;;;;;;;8.02;3.35;;;;;;;;;;4933128;29;20115;-81
2023/07/11 02:14:20;;;;;;;6.15;3.70;;;;;;;;;;4954450;28;20039;-82
2023/07/11 02:16:51;;;;;;;6.07;2.97;;;;;;;;;;4947577;29;20034;-82
2023/07/11 02:19:18;;;;;;;5.30;3.10;;;;;;;;;;4963977;29;20081;-82
2023/07/11 02:21:44;;;;;;;8.85;3.17;;;;;;;;;;4958606;29;20019;-83
2023/07/11 02:24:10;;;;;;;5.68;3.05;;;;;;;;;;4948092;29;20046;-83
2023/07/11 02:26:36;;;;;;;10.50;3.10;;;;;;;;;;4940109;29;20412;-81
2023/07/11 02:29:01;;;;;;;6.07;3.00;;;;;;;;;;4960614;28;20118;-81
2023/07/11 02:31:27;;;;;;;7.38;3.30;;;;;;;;;;4929170;29;20035;-83
2023/07/11 02:33:53;;;;;;;6.20;3.30;;;;;;;;;;4934418;29;20435;-83
2023/07/11 02:36:19;;;;;;;8.55;3.60;;;;;;;;;;4917727;29;20549;-82
2023/07/11 02:38:44;;;;;;;8.60;3.60;;;;;;;;;;4949067;29;20035;-82
2023/07/11 02:41:10;;;;;;;6.78;3.25;;;;;;;;;;4934158;29;20099;-82
2023/07/11 02:43:35;;;;;;;15.98;9.73;;;;;;;;;;4913769;28;20040;-83
2023/07/11 02:46:01;;;;;;;7.38;4.10;;;;;;;;;;4953598;29;20023;-83
2023/07/11 02:48:27;;;;;;;6.13;3.33;;;;;;;;;;4936600;29;20039;-82
2023/07/11 02:50:52;;;;;;;5.35;3.15;;;;;;;;;;4953150;29;20038;-83
2023/07/11 02:53:18;;;;;;;6.28;3.28;;;;;;;;;;4936358;29;20035;-82
2023/07/11 02:55:43;;;;;;;10.05;3.33;;;;;;;;;;4936633;29;20039;-82
2023/07/11 02:58:09;;;;;;;5.82;3.35;;;;;;;;;;4936436;29;20046;-81
2023/07/11 03:00:35;;;;;;;6.05;3.53;;;;;;;;;;4951373;29;20131;-82
2023/07/11 03:03:01;;;;;;;6.18;3.08;;;;;;;;;;4950317;29;20129;-83
2023/07/11 03:05:26;;;;;;;14.45;3.90;;;;;;;;;;4936289;29;20484;-82
2023/07/11 03:07:52;;;;;;;7.05;3.10;;;;;;;;;;4920859;29;20039;-82
2023/07/11 03:10:18;;;;;;;7.28;3.33;;;;;;;;;;4953184;29;20023;-82
2023/07/11 03:12:43;;;;;;;7.35;3.40;;;;;;;;;;4953149;28;20483;-83
2023/07/11 03:15:09;;;;;;;7.40;3.55;;;;;;;;;;4942043;28;20111;-83
2023/07/11 03:17:34;;;;;;;6.22;3.45;;;;;;;;;;4920485;29;20031;-83
2023/07/11 03:20:00;;;;;;;8.93;3.40;;;;;;;;;;4923823;29;20034;-82
2023/07/11 03:22:26;;;;;;;7.20;3.72;;;;;;;;;;4939559;29;20035;-83
2023/07/11 03:24:51;;;;;;;8.55;3.90;;;;;;;;;;4924587;29;20035;-83
2023/07/11 03:27:17;;;;;;;5.40;3.50;;;;;;;;;;4937903;29;20035;-82
2023/07/11 03:29:42;;;;;;;12.07;7.70;;;;;;;;;;4937692;29;20125;-82
2023/07/11 03:32:11;;;;;;;9.25;4.35;;;;;;;;;;4920394;29;20067;-83
2023/07/11 03:34:37;;;;;;;7.72;3.53;;;;;;;;;;4937412;29;20416;-82
2023/07/11 03:37:02;;;;;;;6.65;3.35;;;;;;;;;;4920176;29;20043;-82
2023/07/11 03:39:28;;;;;;;10.48;5.80;;;;;;;;;;4920598;29;20039;-82
2023/07/11 03:41:53;;;;;;;9.13;3.83;;;;;;;;;;4937525;29;20035;-82
2023/07/11 03:44:19;;;;;;;10.80;4.43;;;;;;;;;;4920621;29;20506;-83
2023/07/11 03:46:44;;;;;;;8.10;3.75;;;;;;;;;;4938125;29;20074;-80
2023/07/11 03:49:10;;;;;;;8.98;3.80;;;;;;;;;;4937763;29;20028;-82
2023/07/11 03:51:38;;;;;;;7.53;3.55;;;;;;;;;;4937165;29;20032;-82
2023/07/11 03:54:04;;;;;;;7.07;3.30;;;;;;;;;;4920607;29;20394;-82
2023/07/11 03:56:29;;;;;;;8.05;5.00;;;;;;;;;;4937772;29;20028;-81
2023/07/11 03:58:55;;;;;;;9.45;4.82;;;;;;;;;;4921553;29;20039;-82
2023/07/11 04:01:21;;;;;;;10.18;4.10;;;;;;;;;;4942945;29;20043;-82
2023/07/11 04:03:46;;;;;;;9.43;3.83;;;;;;;;;;4910089;29;20028;-83
2023/07/11 04:06:12;;;;;;;11.00;3.88;;;;;;;;;;4927554;29;20491;-82
2023/07/11 04:08:37;;;;;;;8.07;3.53;;;;;;;;;;4957159;29;20031;-81
2023/07/11 04:11:03;;;;;;;7.45;4.28;;;;;;;;;;4927967;29;20536;-82
2023/07/11 04:13:29;;;;;;;12.10;4.40;;;;;;;;;;4926599;29;20123;-83
2023/07/11 04:15:55;;;;;;;13.43;5.22;;;;;;;;;;4930699;29;20046;-82
2023/07/11 04:18:20;;;;;;;8.07;3.80;;;;;;;;;;4945977;29;20109;-82
2023/07/11 04:20:46;;;;;;;11.68;5.18;;;;;;;;;;4936652;29;20113;-82
2023/07/11 04:23:13;;;;;;;6.63;3.70;;;;;;;;;;4963124;29;20063;-81
2023/07/11 04:25:38;;;;;;;10.10;4.50;;;;;;;;;;4956402;29;20082;-82
2023/07/11 04:28:04;;;;;;;9.05;4.47;;;;;;;;;;4938593;29;20035;-82
2023/07/11 04:30:30;;;;;;;9.18;4.97;;;;;;;;;;4938780;29;20039;-82
2023/07/11 04:32:55;;;;;;;10.68;4.55;;;;;;;;;;4955885;29;20038;-82
2023/07/11 04:35:21;;;;;;;8.75;4.43;;;;;;;;;;4938872;29;20042;-83
2023/07/11 04:37:47;;;;;;;9.63;4.00;;;;;;;;;;4937629;29;20039;-83
2023/07/11 04:40:12;;;;;;;9.77;4.75;;;;;;;;;;4956181;29;20094;-82
2023/07/11 04:42:38;;;;;;;9.02;4.05;;;;;;;;;;4922459;28;20035;-82
2023/07/11 04:45:04;;;;;;;10.27;4.35;;;;;;;;;;4938765;29;20027;-82
2023/07/11 04:47:30;;;;;;;10.45;4.10;;;;;;;;;;4923121;29;20546;-83
2023/07/11 04:49:56;;;;;;;12.38;4.40;;;;;;;;;;4938534;29;20058;-82
2023/07/11 04:52:21;;;;;;;8.70;4.00;;;;;;;;;;4938476;28;20037;-83
2023/07/11 04:54:47;;;;;;;11.73;4.00;;;;;;;;;;4952247;29;20035;-83
2023/07/11 04:57:12;;;;;;;15.30;4.88;;;;;;;;;;4955359;29;20031;-83
2023/07/11 04:59:38;;;;;;;8.75;4.20;;;;;;;;;;4955297;29;20491;-82
2023/07/11 05:02:03;;;;;;;7.25;3.60;;;;;;;;;;4922016;29;20035;-84
2023/07/11 05:04:28;;;;;;;8.55;3.83;;;;;;;;;;4955277;28;20082;-84
2023/07/11 05:06:54;;;;;;;11.13;3.80;;;;;;;;;;4955314;29;20027;-83
2023/07/11 05:09:19;;;;;;;10.32;4.20;;;;;;;;;;4955361;29;20035;-82
2023/07/11 05:11:45;;;;;;;12.27;4.28;;;;;;;;;;4951412;29;20501;-82
2023/07/11 05:14:10;;;;;;;9.73;3.90;;;;;;;;;;4954985;28;20038;-82
2023/07/11 05:16:36;;;;;;;11.10;6.40;;;;;;;;;;4938212;29;20031;-82
2023/07/11 05:19:01;;;;;;;11.80;4.43;;;;;;;;;;4938052;29;20491;-83
2023/07/11 05:21:27;;;;;;;10.30;3.70;;;;;;;;;;4937222;29;20395;-83
2023/07/11 05:23:55;;;;;;;7.72;3.63;;;;;;;;;;4921892;29;20121;-82
2023/07/11 05:26:21;;;;;;;9.20;3.73;;;;;;;;;;4955036;29;20031;-81
2023/07/11 05:28:46;;;;;;;7.28;3.50;;;;;;;;;;4948565;29;20115;-81
2023/07/11 05:31:12;;;;;;;9.63;4.68;;;;;;;;;;4935210;29;20502;-83
2023/07/11 05:33:37;;;;;;;7.97;3.97;;;;;;;;;;4918787;29;20051;-81
2023/07/11 05:38:35;;;;;;;9.93;3.13;;;;;;;;;;4918948;29;20042;-82
2023/07/11 05:41:01;;;;;;;7.97;3.55;;;;;;;;;;4918310;29;20032;-81
2023/07/11 05:43:27;;;;;;;9.63;5.70;;;;;;;;;;4945233;29;20028;-82
2023/07/11 05:45:52;;;;;;;7.53;3.30;;;;;;;;;;4953724;28;20082;-82
2023/07/11 05:48:18;;;;;;;8.52;3.60;;;;;;;;;;4935341;29;20027;-81
2023/07/11 05:50:43;;;;;;;5.60;2.67;;;;;;;;;;4918438;29;20035;-82
2023/07/11 05:53:09;;;;;;;10.02;3.60;;;;;;;;;;4931974;29;20043;-82
2023/07/11 05:55:34;;;;;;;5.95;2.80;;;;;;;;;;4937155;29;20031;-82
2023/07/11 05:58:00;;;;;;;13.07;3.70;;;;;;;;;;4954011;29;20039;-82
2023/07/11 06:00:25;;;;;;;9.88;3.40;;;;;;;;;;4933852;29;20039;-81
2023/07/11 06:02:51;;;;;;;9.50;2.85;;;;;;;;;;4918615;29;20028;-82
2023/07/11 06:05:17;;;;;;;9.55;3.40;;;;;;;;;;4934998;29;20027;-81
2023/07/11 06:07:43;;;;;;;6.15;2.72;;;;;;;;;;4936783;29;20035;-87
2023/07/11 06:10:09;;;;;;;7.95;3.22;;;;;;;;;;4939458;29;20032;-85
2023/07/11 06:12:35;;;;;;;6.68;2.85;;;;;;;;;;4928057;28;20285;-85
2023/07/11 06:15:00;;;;;;;7.30;2.60;;;;;;;;;;4954404;28;20558;-86
2023/07/11 06:17:27;;;;;;;6.45;3.10;;;;;;;;;;4954023;29;20070;-84
2023/07/11 06:19:52;;;;;;;13.73;3.15;;;;;;;;;;4910056;29;20507;-84
2023/07/11 06:22:19;;;;;;;6.40;2.90;;;;;;;;;;4937868;29;20469;-86
2023/07/11 06:24:46;;;;;;;8.77;3.65;;;;;;;;;;4935079;23;20048;-81
2023/07/11 06:27:12;;;;;;;7.20;3.05;;;;;;;;;;4901766;29;20053;-77
2023/07/11 06:29:38;;;;;;;5.95;3.03;;;;;;;;;;4916160;29;20095;-78
2023/07/11 06:32:03;;;;;;;5.35;2.78;;;;;;;;;;4916734;29;20040;-77
2023/07/11 06:34:29;;;;;;;5.93;2.50;;;;;;;;;;4922573;29;20234;-78
2023/07/11 06:36:55;;;;;;;6.15;2.50;;;;;;;;;;4882763;29;20451;-78
2023/07/11 06:39:21;;;;;;;6.53;2.92;;;;;;;;;;4882784;29;20066;-77
2023/07/11 06:41:46;;;;;;;6.45;3.10;;;;;;;;;;4915020;29;20465;-77
2023/07/11 06:44:12;;;;;;;5.88;2.60;;;;;;;;;;4914830;29;20024;-78
2023/07/11 06:46:37;;;;;;;6.30;2.75;;;;;;;;;;4915190;29;20083;-77
2023/07/11 06:49:03;;;;;;;6.05;2.85;;;;;;;;;;4913702;29;20036;-78
2023/07/11 06:51:29;;;;;;;5.03;2.58;;;;;;;;;;4899002;29;20493;-78
2023/07/11 06:53:55;;;;;;;9.07;2.88;;;;;;;;;;4903509;29;20432;-78
2023/07/11 06:56:20;;;;;;;9.07;2.70;;;;;;;;;;4902307;29;20039;-79
2023/07/11 06:58:47;;;;;;;7.93;3.00;;;;;;;;;;4918773;29;20067;-77
2023/07/11 07:01:13;;;;;;;6.00;2.53;;;;;;;;;;4918712;29;20028;-78
2023/07/11 07:03:39;;;;;;;5.40;2.75;;;;;;;;;;4918915;29;20043;-78
2023/07/11 07:06:05;;;;;;;6.10;3.10;;;;;;;;;;4901898;29;20020;-78
2023/07/11 07:08:31;;;;;;;7.03;2.63;;;;;;;;;;4918861;29;20088;-77
2023/07/11 07:10:57;;;;;;;9.15;3.33;;;;;;;;;;4933386;29;20028;-78
2023/07/11 07:13:23;;;;;;;7.68;3.00;;;;;;;;;;4893876;29;20039;-78
2023/07/11 07:15:53;;;;;;;6.97;2.72;;;;;;;;;;4917813;29;20512;-77
2023/07/11 07:18:21;;;;;;;7.05;3.20;;;;;;;;;;4901792;29;20503;-79
2023/07/11 07:20:47;;;;;;;6.20;3.30;;;;;;;;;;4901545;29;20044;-78
2023/07/11 07:23:13;;;;;;;11.18;3.50;;;;;;;;;;4917573;29;20488;-76
2023/07/11 07:25:39;;;;;;;4.97;2.40;;;;;;;;;;4918701;29;20040;-78
2023/07/11 07:28:04;;;;;;;12.00;2.85;;;;;;;;;;4901645;29;20476;-76
2023/07/11 07:30:30;;;;;;;7.13;2.72;;;;;;;;;;4881241;29;20039;-76
2023/07/11 07:32:56;;;;;;;5.32;2.67;;;;;;;;;;4901717;29;20119;-77
2023/07/11 07:35:22;;;;;;;5.63;2.47;;;;;;;;;;4917545;29;20028;-78
2023/07/11 07:37:47;;;;;;;9.25;2.85;;;;;;;;;;4917342;29;20047;-77
2023/07/11 07:40:13;;;;;;;9.02;3.33;;;;;;;;;;4886016;29;20040;-76
2023/07/11 07:42:39;;;;;;;6.80;2.22;;;;;;;;;;4918312;29;20032;-78
2023/07/11 07:45:05;;;;;;;6.90;2.65;;;;;;;;;;4885940;29;20028;-76
2023/07/11 07:47:30;;;;;;;6.25;2.17;;;;;;;;;;4917868;29;20040;-78
2023/07/11 07:49:56;;;;;;;6.05;2.05;;;;;;;;;;4918107;29;20036;-76
2023/07/11 07:52:21;;;;;;;4.93;2.20;;;;;;;;;;4900946;29;20148;-76
2023/07/11 07:54:47;;;;;;;5.85;2.25;;;;;;;;;;4918184;29;20036;-75
2023/07/11 07:57:12;;;;;;;5.47;3.00;;;;;;;;;;4918106;29;20492;-77
2023/07/11 07:59:38;;;;;;;6.68;2.95;;;;;;;;;;4917780;29;20480;-77
2023/07/11 08:02:04;;;;;;;6.40;2.80;;;;;;;;;;4916074;29;20127;-77
2023/07/11 08:04:30;;;;;;;5.28;2.22;;;;;;;;;;4915938;29;20032;-77
2023/07/11 08:06:56;;;;;;;5.65;2.17;;;;;;;;;;4917593;29;20366;-76
2023/07/11 08:09:21;;;;;;;5.68;2.33;;;;;;;;;;4900459;29;20508;-76
2023/07/11 08:11:47;;;;;;;9.27;2.60;;;;;;;;;;4917852;29;20581;-78
2023/07/11 08:14:12;;;;;;;9.55;2.20;;;;;;;;;;4900523;29;20527;-77
2023/07/11 08:16:38;;;;;;;4.38;1.70;;;;;;;;;;4915528;29;20487;-77
2023/07/11 08:19:04;;;;;;;5.43;2.58;;;;;;;;;;4915205;29;20092;-78
2023/07/11 08:21:30;;;;;;;4.32;2.17;;;;;;;;;;4914765;29;20024;-76
2023/07/11 08:23:56;;;;;;;5.78;2.53;;;;;;;;;;4899422;29;20035;-78
2023/07/11 08:26:22;;;;;;;7.85;2.30;;;;;;;;;;4916307;29;20233;-77
2023/07/11 08:28:48;;;;;;;7.60;2.70;;;;;;;;;;4917522;29;20038;-78
2023/07/11 08:31:14;;;;;;;7.03;2.25;;;;;;;;;;4917164;29;20168;-77
2023/07/11 08:33:39;;;;;;;8.18;2.22;;;;;;;;;;4900618;29;20496;-78
2023/07/11 08:36:05;;;;;;;4.88;2.30;;;;;;;;;;4900620;29;20036;-78
2023/07/11 08:38:30;;;;;;;6.03;2.30;;;;;;;;;;4916691;29;20032;-78
2023/07/11 08:40:56;;;;;;;4.18;2.03;;;;;;;;;;4916483;29;20028;-76
2023/07/11 08:43:28;;;;;;;7.70;2.53;;;;;;;;;;4900394;29;20032;-78
2023/07/11 08:46:06;;;;;;;4.93;2.55;;;;;;;;;;4917231;29;20111;-77
2023/07/11 08:48:33;;;;;;;4.10;2.08;;;;;;;;;;4920907;29;20020;-78
2023/07/11 08:51:01;;;;;;;5.35;2.47;;;;;;;;;;4919228;29;20036;-76
2023/07/11 08:53:31;;;;;;;3.83;1.90;;;;;;;;;;4919096;29;20868;-78
2023/07/11 08:55:57;;;;;;;6.32;2.95;;;;;;;;;;4936326;29;20051;-77
2023/07/11 08:58:27;;;;;;;8.32;2.65;;;;;;;;;;4887262;29;20055;-75
2023/07/11 09:00:53;;;;;;;5.35;2.17;;;;;;;;;;4913969;29;20024;-77
2023/07/11 09:03:27;;;;;;;6.78;2.55;;;;;;;;;;4915918;29;20555;-76
2023/07/11 09:05:52;;;;;;;4.75;2.15;;;;;;;;;;4900083;29;20025;-77
2023/07/11 09:08:19;;;;;;;4.60;2.03;;;;;;;;;;4923748;29;20047;-76
2023/07/11 09:10:53;;;;;;;7.55;2.47;;;;;;;;;;4917355;29;20028;-76
2023/07/11 09:13:21;;;;;;;11.15;2.70;;;;;;;;;;4917106;29;20043;-75
2023/07/11 09:15:49;;;;;;;5.20;2.30;;;;;;;;;;4917466;29;20039;-76
2023/07/11 09:18:15;;;;;;;5.40;2.67;;;;;;;;;;4916981;29;20476;-78
2023/07/11 09:20:44;;;;;;;7.03;2.55;;;;;;;;;;4915319;29;20164;-76
2023/07/11 09:23:18;;;;;;;7.38;2.75;;;;;;;;;;4916444;29;20615;-78
2023/07/11 09:25:45;;;;;;;5.13;2.30;;;;;;;;;;4899600;29;20551;-77
2023/07/11 09:28:13;;;;;;;5.85;2.80;;;;;;;;;;4916229;29;20040;-78
2023/07/11 09:30:51;;;;;;;6.88;2.40;;;;;;;;;;4915883;29;20036;-77
2023/07/11 09:33:22;;;;;;;6.25;2.75;;;;;;;;;;4899520;29;20032;-77
2023/07/11 09:35:50;;;;;;;4.72;2.42;;;;;;;;;;4915541;29;20040;-76
2023/07/11 09:38:24;;;;;;;7.23;2.20;;;;;;;;;;4897573;29;20039;-77
2023/07/11 09:40:53;;;;;;;5.40;2.25;;;;;;;;;;4918002;29;20055;-78
2023/07/11 09:43:18;;;;;;;4.97;2.50;;;;;;;;;;4917993;29;20050;-77
2023/07/11 09:45:47;;;;;;;5.82;2.40;;;;;;;;;;4935571;29;20403;-77
2023/07/11 09:48:17;;;;;;;4.40;2.28;;;;;;;;;;4918302;29;20032;-77
2023/07/11 09:50:54;;;;;;;3.85;2.28;;;;;;;;;;4917493;29;20032;-76
2023/07/11 09:53:21;;;;;;;5.78;2.10;;;;;;;;;;4897467;29;20119;-76
2023/07/11 09:55:52;;;;;;;6.95;2.60;;;;;;;;;;4912763;29;20032;-76
2023/07/11 09:58:17;;;;;;;5.13;2.40;;;;;;;;;;4915769;29;20035;-78
2023/07/11 10:00:46;;;;;;;5.07;2.85;;;;;;;;;;4915622;29;20507;-75
2023/07/11 10:03:19;;;;;;;4.47;2.00;;;;;;;;;;4898925;29;20067;-77
2023/07/11 10:05:46;;;;;;;2.88;1.60;;;;;;;;;;4914476;29;20028;-76
2023/07/11 10:08:17;;;;;;;4.97;2.08;;;;;;;;;;4883219;29;20032;-75
2023/07/11 10:10:52;;;;;;;4.75;2.17;;;;;;;;;;4882210;29;20036;-77
2023/07/11 10:13:18;;;;;;;5.20;2.08;;;;;;;;;;4911947;29;20032;-76
2023/07/11 10:15:47;;;;;;;8.20;2.40;;;;;;;;;;4898716;29;20400;-75
2023/07/11 10:18:17;;;;;;;7.95;2.50;;;;;;;;;;4915429;29;20092;-78
2023/07/11 10:20:44;;;;;;;4.38;2.40;;;;;;;;;;4898284;29;20088;-78
2023/07/11 10:23:10;;;;;;;5.45;2.75;;;;;;;;;;4898466;29;20118;-78
2023/07/11 10:25:35;;;;;;;7.15;3.00;;;;;;;;;;4897547;29;20044;-77
2023/07/11 10:28:01;;;;;;;4.43;2.40;;;;;;;;;;4898151;29;20091;-75
2023/07/11 10:30:30;;;;;;;4.90;2.38;;;;;;;;;;4913275;29;20091;-75
2023/07/11 10:32:57;;;;;;;4.60;2.50;;;;;;;;;;4914912;29;20036;-75
2023/07/11 10:35:24;;;;;;;8.88;2.85;;;;;;;;;;4913843;29;20103;-77
2023/07/11 10:37:59;;;;;;;4.97;2.42;;;;;;;;;;4914319;29;20115;-77
2023/07/11 10:40:28;;;;;;;5.78;2.50;;;;;;;;;;4914114;29;20031;-77
2023/07/11 10:43:05;;;;;;;4.32;2.75;;;;;;;;;;4914969;29;20032;-77
2023/07/11 10:45:40;;;;;;;5.93;2.50;;;;;;;;;;4912809;29;20024;-76
2023/07/11 10:48:08;;;;;;;4.78;2.35;;;;;;;;;;4897960;29;20032;-77
2023/07/11 10:50:52;;;;;;;7.97;3.17;;;;;;;;;;4913302;29;20107;-77
2023/07/11 10:53:23;;;;;;;8.07;3.22;;;;;;;;;;4896726;29;20032;-78
2023/07/11 10:55:56;;;;;;;6.35;2.83;;;;;;;;;;4896510;29;20055;-76
2023/07/11 10:58:23;;;;;;;5.15;3.33;;;;;;;;;;4896080;29;20500;-77
2023/07/11 11:00:51;;;;;;;6.00;3.40;;;;;;;;;;4895921;29;20543;-76
2023/07/11 11:03:32;;;;;;;6.57;3.10;;;;;;;;;;4895005;29;20032;-76
2023/07/11 11:06:04;;;;;;;7.47;3.65;;;;;;;;;;4928150;29;20032;-77
2023/07/11 11:08:36;;;;;;;5.85;3.10;;;;;;;;;;4916711;29;20032;-77
2023/07/11 11:11:06;;;;;;;6.45;3.35;;;;;;;;;;4916847;29;20040;-77
2023/07/11 11:13:40;;;;;;;7.43;2.97;;;;;;;;;;4933933;29;20130;-77
2023/07/11 11:16:08;;;;;;;7.97;4.00;;;;;;;;;;4934057;29;20039;-77
2023/07/11 11:18:49;;;;;;;5.60;3.17;;;;;;;;;;4916932;29;20036;-77
2023/07/11 11:21:23;;;;;;;4.90;3.10;;;;;;;;;;4933529;29;20036;-76
2023/07/11 11:24:07;;;;;;;6.35;2.90;;;;;;;;;;4934007;29;20059;-77
2023/07/11 11:26:41;;;;;;;5.85;3.30;;;;;;;;;;4933964;29;20059;-76
2023/07/11 11:29:14;;;;;;;5.53;3.30;;;;;;;;;;4933769;29;20028;-77
2023/07/11 11:32:02;;;;;;;7.03;3.25;;;;;;;;;;4913096;29;20048;-77
2023/07/11 11:34:41;;;;;;;9.20;3.92;;;;;;;;;;4904808;29;20036;-77
2023/07/11 11:37:27;;;;;;;5.10;3.33;;;;;;;;;;4914845;29;20028;-76
2023/07/11 11:39:56;;;;;;;7.20;3.65;;;;;;;;;;4901131;29;20517;-77
2023/07/11 11:42:27;;;;;;;4.85;3.25;;;;;;;;;;4917745;29;20107;-78
2023/07/11 11:44:54;;;;;;;5.80;3.00;;;;;;;;;;4918488;29;20076;-78
2023/07/11 11:47:20;;;;;;;7.00;3.35;;;;;;;;;;4915850;29;20025;-78
2023/07/11 11:49:46;;;;;;;7.57;3.65;;;;;;;;;;4918507;29;20032;-76
2023/07/11 11:52:12;;;;;;;6.38;3.70;;;;;;;;;;4917808;29;20440;-77
2023/07/11 11:54:45;;;;;;;10.18;3.60;;;;;;;;;;4909722;29;20036;-76
2023/07/11 11:57:17;;;;;;;7.40;3.40;;;;;;;;;;4917761;29;20036;-78
2023/07/11 11:59:44;;;;;;;5.38;3.72;;;;;;;;;;4918122;29;20046;-77
2023/07/11 12:02:12;;;;;;;7.87;3.50;;;;;;;;;;4916191;29;20028;-77
2023/07/11 12:04:54;;;;;;;9.90;3.75;;;;;;;;;;4896586;29;20020;-76
2023/07/11 12:07:25;;;;;;;7.03;3.78;;;;;;;;;;4918007;29;20032;-78
2023/07/11 12:09:51;;;;;;;7.28;4.03;;;;;;;;;;4885585;29;20064;-77
2023/07/11 12:12:19;;;;;;;7.57;4.10;;;;;;;;;;4917398;29;20534;-78
2023/07/11 12:14:44;;;;;;;;;;;;;;;;;;4918263;29;20032;-78
2023/07/11 12:17:36;;;;;;;8.68;4.30;;;;;;;;;;4917768;29;19911;-77
2023/07/11 12:20:07;;;;;;;7.65;4.45;;;;;;;;;;4912681;29;20048;-78
2023/07/11 12:22:39;;;;;;;8.60;4.35;;;;;;;;;;4916720;29;20036;-78
2023/07/11 12:25:04;;;;;;;7.10;4.40;;;;;;;;;;4926274;23;20131;-84
2023/07/11 12:27:30;;;;;;;7.43;4.63;;;;;;;;;;4919862;29;20074;-84
2023/07/11 12:29:56;;;;;;;8.35;5.20;;;;;;;;;;4916699;29;20071;-84
2023/07/11 12:32:31;;;;;;;7.93;4.60;;;;;;;;;;4935144;29;20066;-83
2023/07/11 12:35:03;;;;;;;8.48;5.10;;;;;;;;;;4936806;29;20043;-84
2023/07/11 12:37:43;;;;;;;8.82;4.93;;;;;;;;;;4919905;29;20447;-84
2023/07/11 12:40:21;;;;;;;10.82;4.75;;;;;;;;;;4891584;29;20032;-83
2023/07/11 12:42:54;;;;;;;10.68;5.13;;;;;;;;;;4899646;29;20029;-83
2023/07/11 12:45:21;;;;;;;7.72;4.63;;;;;;;;;;4916401;29;20080;-82
2023/07/11 12:47:47;;;;;;;8.23;4.75;;;;;;;;;;4917891;29;20507;-83
2023/07/11 12:50:17;;;;;;;8.82;4.90;;;;;;;;;;4917819;29;20057;-83
2023/07/11 12:52:43;;;;;;;8.40;4.70;;;;;;;;;;4917695;29;20028;-84
2023/07/11 12:55:11;;;;;;;8.65;4.78;;;;;;;;;;4897050;29;20112;-84
2023/07/11 12:57:42;;;;;;;9.30;4.40;;;;;;;;;;4915934;29;20582;-83
2023/07/11 13:00:21;;;;;;;8.93;5.18;;;;;;;;;;4917115;29;20043;-83
2023/07/11 13:02:49;;;;;;;8.18;6.00;;;;;;;;;;4901108;29;20060;-86
2023/07/11 13:05:14;;;;;;;7.93;5.45;;;;;;;;;;4917242;29;20108;-85
2023/07/11 13:07:40;;;;;;;9.77;5.78;;;;;;;;;;4900619;29;20180;-86
2023/07/11 13:10:26;;;;;;;8.20;5.30;;;;;;;;;;4884935;29;20047;-88
2023/07/11 13:12:52;;;;;;;7.13;5.13;;;;;;;;;;4885162;29;20032;-87
2023/07/11 13:15:19;;;;;;;9.25;5.65;;;;;;;;;;4884782;29;20144;-87
2023/07/11 13:17:46;;;;;;;11.47;6.50;;;;;;;;;;4884805;29;20441;-85
2023/07/11 13:20:18;;;;;;;9.57;5.50;;;;;;;;;;4917287;29;20291;-87
2023/07/11 13:22:43;;;;;;;10.63;5.57;;;;;;;;;;4916541;29;20058;-86
2023/07/11 13:25:16;;;;;;;8.02;5.45;;;;;;;;;;4917576;29;20033;-84
2023/07/11 13:27:44;;;;;;;9.70;6.10;;;;;;;;;;4886262;29;20035;-86
2023/07/11 13:30:21;;;;;;;11.02;5.65;;;;;;;;;;4901271;29;20052;-85
2023/07/11 13:32:51;;;;;;;7.97;5.65;;;;;;;;;;4917793;29;20036;-85
2023/07/11 13:35:17;;;;;;;8.70;6.10;;;;;;;;;;4919503;29;20480;-86
2023/07/11 13:37:44;;;;;;;8.25;5.97;;;;;;;;;;4935153;29;20043;-85
2023/07/11 13:40:28;;;;;;;9.45;6.05;;;;;;;;;;4921243;29;20036;-84
2023/07/11 13:42:55;;;;;;;8.73;5.70;;;;;;;;;;4901915;29;20123;-85
2023/07/11 13:45:21;;;;;;;12.15;6.50;;;;;;;;;;4900025;29;20042;-85
2023/07/11 13:47:49;;;;;;;9.57;6.38;;;;;;;;;;4917303;29;20032;-86
2023/07/11 13:50:16;;;;;;;10.82;6.10;;;;;;;;;;4907010;29;20551;-86
2023/07/11 13:52:49;;;;;;;11.82;6.15;;;;;;;;;;4897232;29;20076;-84
2023/07/11 13:55:22;;;;;;;11.13;6.47;;;;;;;;;;4905267;29;20096;-85
2023/07/11 13:57:47;;;;;;;8.80;6.05;;;;;;;;;;4900649;29;20028;-86
2023/07/11 14:00:14;;;;;;;11.55;6.45;;;;;;;;;;4915868;29;20031;-85
2023/07/11 14:02:41;;;;;;;8.52;6.82;;;;;;;;;;4918837;29;20032;-86
2023/07/11 14:05:33;;;;;;;8.45;6.20;;;;;;;;;;4917661;29;20039;-84
2023/07/11 14:08:00;;;;;;;11.25;6.55;;;;;;;;;;4916471;29;20032;-86
2023/07/11 14:10:28;;;;;;;9.88;6.07;;;;;;;;;;4939630;29;20036;-84
2023/07/11 14:12:54;;;;;;;8.63;6.60;;;;;;;;;;4931781;29;20126;-86
2023/07/11 14:15:21;;;;;;;9.75;6.93;;;;;;;;;;4948411;29;20024;-86
2023/07/11 14:17:47;;;;;;;8.73;6.40;;;;;;;;;;4901876;29;20051;-85
2023/07/11 14:20:17;;;;;;;10.73;6.95;;;;;;;;;;4930410;29;20067;-83
2023/07/11 14:22:43;;;;;;;12.52;7.78;;;;;;;;;;4942849;29;20028;-83
2023/07/11 14:25:28;;;;;;;12.85;6.60;;;;;;;;;;4918201;29;20563;-86
2023/07/11 14:27:55;;;;;;;12.68;8.25;;;;;;;;;;4916811;29;20038;-85
2023/07/11 14:30:21;;;;;;;10.53;8.23;;;;;;;;;;4916518;29;20058;-85
2023/07/11 14:32:46;;;;;;;8.82;6.10;;;;;;;;;;4916122;29;20492;-85
2023/07/11 14:35:13;;;;;;;8.30;5.88;;;;;;;;;;4915269;29;20043;-85
2023/07/11 14:37:39;;;;;;;11.13;7.40;;;;;;;;;;4917353;29;20484;-84
2023/07/11 14:40:05;;;;;;;91.45;74.22;;;;;;;;;;4910312;29;20047;-87
2023/07/11 14:42:30;;;;;;;150.82;136.02;;;;;;;;;;4915081;29;20612;-83
2023/07/11 14:44:56;;;;;;;13.80;10.38;;;;;;;;;;4915758;29;20111;-82
2023/07/11 14:47:22;;;;;;;15.52;12.02;;;;;;;;;;4913519;29;20032;-83